Aviation Digital Data Service (ADDS)

Output produced by METARs form (2313 UTC 18 August 2019)
found at http://www.aviationweather.gov/metar/data/
 
METAR text: EBLG 182250Z 24008KT CAVOK 14/11 Q1013 NOSIG
Conditions at: EBLG (BIERSET/LIEGE (C, BE) observed 2250 UTC 18 August 2019
Temperature: 14.0°C (57°F)
Dewpoint: 11.0°C (52°F) [RH = 82%]
Pressure (altimeter): 29.91 inches Hg (1013.0 mb)
Winds: from the WSW (240 degrees) at 9 MPH (8 knots; 4.1 m/s)
Visibility: 6 or more miles (10+ km)
Ceiling: ceiling and visibility are OK
Clouds: unknown
Weather: no significant weather observed at this time

METAR text: EBLG 182220Z 23009KT CAVOK 15/10 Q1012 NOSIG
Conditions at: EBLG (BIERSET/LIEGE (C, BE) observed 2220 UTC 18 August 2019
Temperature: 15.0°C (59°F)
Dewpoint: 10.0°C (50°F) [RH = 72%]
Pressure (altimeter): 29.88 inches Hg (1012.0 mb)
Winds: from the SW (230 degrees) at 10 MPH (9 knots; 4.6 m/s)
Visibility: 6 or more miles (10+ km)
Ceiling: ceiling and visibility are OK
Clouds: unknown
Weather: no significant weather observed at this time

METAR text: EBLG 182150Z 23007KT CAVOK 14/10 Q1012 NOSIG
Conditions at: EBLG (BIERSET/LIEGE (C, BE) observed 2150 UTC 18 August 2019
Temperature: 14.0°C (57°F)
Dewpoint: 10.0°C (50°F) [RH = 77%]
Pressure (altimeter): 29.88 inches Hg (1012.0 mb)
Winds: from the SW (230 degrees) at 8 MPH (7 knots; 3.6 m/s)
Visibility: 6 or more miles (10+ km)
Ceiling: ceiling and visibility are OK
Clouds: unknown
Weather: no significant weather observed at this time

METAR text: EBLG 182120Z 24007KT CAVOK 14/11 Q1012 NOSIG
Conditions at: EBLG (BIERSET/LIEGE (C, BE) observed 2120 UTC 18 August 2019
Temperature: 14.0°C (57°F)
Dewpoint: 11.0°C (52°F) [RH = 82%]
Pressure (altimeter): 29.88 inches Hg (1012.0 mb)
Winds: from the WSW (240 degrees) at 8 MPH (7 knots; 3.6 m/s)
Visibility: 6 or more miles (10+ km)
Ceiling: ceiling and visibility are OK
Clouds: unknown
Weather: no significant weather observed at this time

METAR text: EBLG 182050Z 26006KT CAVOK 15/11 Q1012 NOSIG
Conditions at: EBLG (BIERSET/LIEGE (C, BE) observed 2050 UTC 18 August 2019
Temperature: 15.0°C (59°F)
Dewpoint: 11.0°C (52°F) [RH = 77%]
Pressure (altimeter): 29.88 inches Hg (1012.0 mb)
Winds: from the W (260 degrees) at 7 MPH (6 knots; 3.1 m/s)
Visibility: 6 or more miles (10+ km)
Ceiling: ceiling and visibility are OK
Clouds: unknown
Weather: no significant weather observed at this time

METAR text: EBLG 182020Z 26008KT CAVOK 16/12 Q1012 NOSIG
Conditions at: EBLG (BIERSET/LIEGE (C, BE) observed 2020 UTC 18 August 2019
Temperature: 16.0°C (61°F)
Dewpoint: 12.0°C (54°F) [RH = 77%]
Pressure (altimeter): 29.88 inches Hg (1012.0 mb)
Winds: from the W (260 degrees) at 9 MPH (8 knots; 4.1 m/s)
Visibility: 6 or more miles (10+ km)
Ceiling: ceiling and visibility are OK
Clouds: unknown
Weather: no significant weather observed at this time

METAR text: EBLG 181950Z 26010KT CAVOK 17/13 Q1011 NOSIG
Conditions at: EBLG (BIERSET/LIEGE (C, BE) observed 1950 UTC 18 August 2019
Temperature: 17.0°C (63°F)
Dewpoint: 13.0°C (55°F) [RH = 77%]
Pressure (altimeter): 29.85 inches Hg (1011.0 mb)
Winds: from the W (260 degrees) at 12 MPH (10 knots; 5.1 m/s)
Visibility: 6 or more miles (10+ km)
Ceiling: ceiling and visibility are OK
Clouds: unknown
Weather: no significant weather observed at this time

METAR text: EBLG 181920Z 23008KT 9999 SCT026 17/14 Q1011 NOSIG
Conditions at: EBLG (BIERSET/LIEGE (C, BE) observed 1920 UTC 18 August 2019
Temperature: 17.0°C (63°F)
Dewpoint: 14.0°C (57°F) [RH = 82%]
Pressure (altimeter): 29.85 inches Hg (1011.0 mb)
Winds: from the SW (230 degrees) at 9 MPH (8 knots; 4.1 m/s)
Visibility: 6 or more miles (10+ km)
Ceiling: at least 12,000 feet AGL
Clouds: scattered clouds at 2600 feet AGL
Weather: no significant weather observed at this time

METAR text: EBLG 181850Z 20008KT 160V220 9999 SCT022 17/14 Q1010 NOSIG
Conditions at: EBLG (BIERSET/LIEGE (C, BE) observed 1850 UTC 18 August 2019
Temperature: 17.0°C (63°F)
Dewpoint: 14.0°C (57°F) [RH = 82%]
Pressure (altimeter): 29.82 inches Hg (1010.0 mb)
Winds: from the SSW (200 degrees) at 9 MPH (8 knots; 4.1 m/s)
Visibility: 6 or more miles (10+ km)
Ceiling: at least 12,000 feet AGL
Clouds: scattered clouds at 2200 feet AGL
Weather: no significant weather observed at this time

METAR text: EBLG 181820Z 22009KT 9999 SCT022 18/14 Q1010 NOSIG
Conditions at: EBLG (BIERSET/LIEGE (C, BE) observed 1820 UTC 18 August 2019
Temperature: 18.0°C (64°F)
Dewpoint: 14.0°C (57°F) [RH = 77%]
Pressure (altimeter): 29.82 inches Hg (1010.0 mb)
Winds: from the SW (220 degrees) at 10 MPH (9 knots; 4.6 m/s)
Visibility: 6 or more miles (10+ km)
Ceiling: at least 12,000 feet AGL
Clouds: scattered clouds at 2200 feet AGL
Weather: no significant weather observed at this time

METAR text: EBLG 181750Z 21008KT 9999 FEW022 18/14 Q1010 NOSIG
Conditions at: EBLG (BIERSET/LIEGE (C, BE) observed 1750 UTC 18 August 2019
Temperature: 18.0°C (64°F)
Dewpoint: 14.0°C (57°F) [RH = 77%]
Pressure (altimeter): 29.82 inches Hg (1010.0 mb)
Winds: from the SSW (210 degrees) at 9 MPH (8 knots; 4.1 m/s)
Visibility: 6 or more miles (10+ km)
Ceiling: at least 12,000 feet AGL
Clouds: few clouds at 2200 feet AGL
Weather: no significant weather observed at this time

METAR text: EBLG 181720Z 23011KT 9999 FEW022 18/14 Q1010 NOSIG
Conditions at: EBLG (BIERSET/LIEGE (C, BE) observed 1720 UTC 18 August 2019
Temperature: 18.0°C (64°F)
Dewpoint: 14.0°C (57°F) [RH = 77%]
Pressure (altimeter): 29.82 inches Hg (1010.0 mb)
Winds: from the SW (230 degrees) at 13 MPH (11 knots; 5.7 m/s)
Visibility: 6 or more miles (10+ km)
Ceiling: at least 12,000 feet AGL
Clouds: few clouds at 2200 feet AGL
Weather: no significant weather observed at this time

METAR text: EBLG 181650Z 22011KT 9999 FEW020 19/14 Q1010 NOSIG
Conditions at: EBLG (BIERSET/LIEGE (C, BE) observed 1650 UTC 18 August 2019
Temperature: 19.0°C (66°F)
Dewpoint: 14.0°C (57°F) [RH = 73%]
Pressure (altimeter): 29.82 inches Hg (1010.0 mb)
Winds: from the SW (220 degrees) at 13 MPH (11 knots; 5.7 m/s)
Visibility: 6 or more miles (10+ km)
Ceiling: at least 12,000 feet AGL
Clouds: few clouds at 2000 feet AGL
Weather: no significant weather observed at this time

METAR text: EBLG 181620Z 23009KT 9999 FEW018 SCT040 18/15 Q1009 NOSIG
Conditions at: EBLG (BIERSET/LIEGE (C, BE) observed 1620 UTC 18 August 2019
Temperature: 18.0°C (64°F)
Dewpoint: 15.0°C (59°F) [RH = 83%]
Pressure (altimeter): 29.79 inches Hg (1009.0 mb)
Winds: from the SW (230 degrees) at 10 MPH (9 knots; 4.6 m/s)
Visibility: 6 or more miles (10+ km)
Ceiling: at least 12,000 feet AGL
Clouds: few clouds at 1800 feet AGL
scattered clouds at 4000 feet AGL
Weather: no significant weather observed at this time

METAR text: EBLG 181550Z 23010KT 9999 FEW015 SCT040 19/15 Q1009 NOSIG
Conditions at: EBLG (BIERSET/LIEGE (C, BE) observed 1550 UTC 18 August 2019
Temperature: 19.0°C (66°F)
Dewpoint: 15.0°C (59°F) [RH = 78%]
Pressure (altimeter): 29.79 inches Hg (1009.0 mb)
Winds: from the SW (230 degrees) at 12 MPH (10 knots; 5.1 m/s)
Visibility: 6 or more miles (10+ km)
Ceiling: at least 12,000 feet AGL
Clouds: few clouds at 1500 feet AGL
scattered clouds at 4000 feet AGL
Weather: no significant weather observed at this time

METAR text: EBLG 181520Z 24011KT 9999 FEW013 SCT040 18/15 Q1009 NOSIG
Conditions at: EBLG (BIERSET/LIEGE (C, BE) observed 1520 UTC 18 August 2019
Temperature: 18.0°C (64°F)
Dewpoint: 15.0°C (59°F) [RH = 83%]
Pressure (altimeter): 29.79 inches Hg (1009.0 mb)
Winds: from the WSW (240 degrees) at 13 MPH (11 knots; 5.7 m/s)
Visibility: 6 or more miles (10+ km)
Ceiling: at least 12,000 feet AGL
Clouds: few clouds at 1300 feet AGL
scattered clouds at 4000 feet AGL
Weather: no significant weather observed at this time

METAR text: EBLG 181450Z 27010KT 9999 SCT011 BKN030 18/16 Q1009 NOSIG
Conditions at: EBLG (BIERSET/LIEGE (C, BE) observed 1450 UTC 18 August 2019
Temperature: 18.0°C (64°F)
Dewpoint: 16.0°C (61°F) [RH = 88%]
Pressure (altimeter): 29.79 inches Hg (1009.0 mb)
Winds: from the W (270 degrees) at 12 MPH (10 knots; 5.1 m/s)
Visibility: 6 or more miles (10+ km)
Ceiling: 3000 feet AGL
Clouds: scattered clouds at 1100 feet AGL
broken clouds at 3000 feet AGL
Weather: no significant weather observed at this time

METAR text: EBLG 181420Z 27013KT 9999 SCT010 BKN022 18/16 Q1008 NOSIG
Conditions at: EBLG (BIERSET/LIEGE (C, BE) observed 1420 UTC 18 August 2019
Temperature: 18.0°C (64°F)
Dewpoint: 16.0°C (61°F) [RH = 88%]
Pressure (altimeter): 29.76 inches Hg (1008.0 mb)
Winds: from the W (270 degrees) at 15 MPH (13 knots; 6.7 m/s)
Visibility: 6 or more miles (10+ km)
Ceiling: 2200 feet AGL
Clouds: scattered clouds at 1000 feet AGL
broken clouds at 2200 feet AGL
Weather: no significant weather observed at this time

METAR text: EBLG 181350Z 26013KT 9999 SCT008 BKN025 18/17 Q1008 NOSIG
Conditions at: EBLG (BIERSET/LIEGE (C, BE) observed 1350 UTC 18 August 2019
Temperature: 18.0°C (64°F)
Dewpoint: 17.0°C (63°F) [RH = 94%]
Pressure (altimeter): 29.76 inches Hg (1008.0 mb)
Winds: from the W (260 degrees) at 15 MPH (13 knots; 6.7 m/s)
Visibility: 6 or more miles (10+ km)
Ceiling: 2500 feet AGL
Clouds: scattered clouds at 800 feet AGL
broken clouds at 2500 feet AGL
Weather: no significant weather observed at this time

METAR text: EBLG 181320Z 28012KT 4500 -SHRA SCT005 BKN007 17/16 Q1007 TEMPO 3000 SHRA
Conditions at: EBLG (BIERSET/LIEGE (C, BE) observed 1320 UTC 18 August 2019
Temperature: 17.0°C (63°F)
Dewpoint: 16.0°C (61°F) [RH = 94%]
Pressure (altimeter): 29.73 inches Hg (1007.0 mb)
Winds: from the W (280 degrees) at 14 MPH (12 knots; 6.2 m/s)
Visibility: 2.80 miles (4.51 km)
Ceiling: 700 feet AGL
Clouds: scattered clouds at 500 feet AGL
broken clouds at 700 feet AGL
Weather: -SHRA  (light rain showers)

METAR text: EBLG 181250Z 24011KT 9000 VCSH FEW006 BKN008 18/17 Q1007 TEMPO 3000 SHRA
Conditions at: EBLG (BIERSET/LIEGE (C, BE) observed 1250 UTC 18 August 2019
Temperature: 18.0°C (64°F)
Dewpoint: 17.0°C (63°F) [RH = 94%]
Pressure (altimeter): 29.73 inches Hg (1007.0 mb)
Winds: from the WSW (240 degrees) at 13 MPH (11 knots; 5.7 m/s)
Visibility: 6 miles ( 9 km)
Ceiling: 800 feet AGL
Clouds: few clouds at 600 feet AGL
broken clouds at 800 feet AGL
Weather: VCSH  (showers in vicinity)

METAR text: EBLG 181220Z 25010KT 9999 -SHRA FEW008 BKN012 18/17 Q1006 BECMG NSW
Conditions at: EBLG (BIERSET/LIEGE (C, BE) observed 1220 UTC 18 August 2019
Temperature: 18.0°C (64°F)
Dewpoint: 17.0°C (63°F) [RH = 94%]
Pressure (altimeter): 29.70 inches Hg (1006.0 mb)
Winds: from the WSW (250 degrees) at 12 MPH (10 knots; 5.1 m/s)
Visibility: 6 or more miles (10+ km)
Ceiling: 1200 feet AGL
Clouds: few clouds at 800 feet AGL
broken clouds at 1200 feet AGL
Weather: -SHRA  (light rain showers)

METAR text: EBLG 181150Z 23013KT 4500 SHRA SCT006 BKN012 17/16 Q1006 TEMPO 3000 BKN006
Conditions at: EBLG (BIERSET/LIEGE (C, BE) observed 1150 UTC 18 August 2019
Temperature: 17.0°C (63°F)
Dewpoint: 16.0°C (61°F) [RH = 94%]
Pressure (altimeter): 29.70 inches Hg (1006.0 mb)
Winds: from the SW (230 degrees) at 15 MPH (13 knots; 6.7 m/s)
Visibility: 2.80 miles (4.51 km)
Ceiling: 1200 feet AGL
Clouds: scattered clouds at 600 feet AGL
broken clouds at 1200 feet AGL
Weather: SHRA  (rain showers)

METAR text: EBLG 181120Z 24011KT 7000 -SHRA SCT008 BKN018 17/16 Q1006 TEMPO 3000 BKN006
Conditions at: EBLG (BIERSET/LIEGE (C, BE) observed 1120 UTC 18 August 2019
Temperature: 17.0°C (63°F)
Dewpoint: 16.0°C (61°F) [RH = 94%]
Pressure (altimeter): 29.70 inches Hg (1006.0 mb)
Winds: from the WSW (240 degrees) at 13 MPH (11 knots; 5.7 m/s)
Visibility: 4 miles ( 7 km)
Ceiling: 1800 feet AGL
Clouds: scattered clouds at 800 feet AGL
broken clouds at 1800 feet AGL
Weather: -SHRA  (light rain showers)

METAR text: EBLG 181050Z 23009KT 9999 FEW009 BKN025 17/16 Q1005 RERADZ NOSIG
Conditions at: EBLG (BIERSET/LIEGE (C, BE) observed 1050 UTC 18 August 2019
Temperature: 17.0°C (63°F)
Dewpoint: 16.0°C (61°F) [RH = 94%]
Pressure (altimeter): 29.68 inches Hg (1005.0 mb)
Winds: from the SW (230 degrees) at 10 MPH (9 knots; 4.6 m/s)
Visibility: 6 or more miles (10+ km)
Ceiling: 2500 feet AGL
Clouds: few clouds at 900 feet AGL
broken clouds at 2500 feet AGL
Weather: no significant weather observed at this time

METAR text: EBLG 181020Z 28007KT 2200 -RADZ FEW002 BKN004 16/15 Q1005 NOSIG
Conditions at: EBLG (BIERSET/LIEGE (C, BE) observed 1020 UTC 18 August 2019
Temperature: 16.0°C (61°F)
Dewpoint: 15.0°C (59°F) [RH = 94%]
Pressure (altimeter): 29.68 inches Hg (1005.0 mb)
Winds: from the W (280 degrees) at 8 MPH (7 knots; 3.6 m/s)
Visibility: 1.37 miles (2.20 km)
Ceiling: 400 feet AGL
Clouds: few clouds at 200 feet AGL
broken clouds at 400 feet AGL
Weather: -RA -DZ  (light rain, light drizzle)

METAR text: EBLG 180950Z 32005KT 240V010 1800 RADZ FEW002 BKN003 15/14 Q1005 TEMPO 1200 RADZ BKN002
Conditions at: EBLG (BIERSET/LIEGE (C, BE) observed 0950 UTC 18 August 2019
Temperature: 15.0°C (59°F)
Dewpoint: 14.0°C (57°F) [RH = 94%]
Pressure (altimeter): 29.68 inches Hg (1005.0 mb)
Winds: from the NW (320 degrees) at 6 MPH (5 knots; 2.6 m/s)
Visibility: 1.12 miles (1.80 km)
Ceiling: 300 feet AGL
Clouds: few clouds at 200 feet AGL
broken clouds at 300 feet AGL
Weather: RA DZ  (moderate rain, moderate drizzle)

METAR text: EBLG 180920Z VRB02KT 5000 -DZ FEW004 BKN010 17/16 Q1004 TEMPO 1200 RADZ BKN002
Conditions at: EBLG (BIERSET/LIEGE (C, BE) observed 0920 UTC 18 August 2019
Temperature: 17.0°C (63°F)
Dewpoint: 16.0°C (61°F) [RH = 94%]
Pressure (altimeter): 29.65 inches Hg (1004.0 mb)
Winds: variable direction winds at 2 MPH (2 knots; 1.0 m/s)
Visibility: 3 miles ( 5 km)
Ceiling: 1000 feet AGL
Clouds: few clouds at 400 feet AGL
broken clouds at 1000 feet AGL
Weather: -DZ  (light drizzle)

METAR text: EBLG 180850Z VRB02KT 1500 -RADZ SCT002 BKN004 16/15 Q1004 RERADZ TEMPO 1200 RADZ BKN002
Conditions at: EBLG (BIERSET/LIEGE (C, BE) observed 0850 UTC 18 August 2019
Temperature: 16.0°C (61°F)
Dewpoint: 15.0°C (59°F) [RH = 94%]
Pressure (altimeter): 29.65 inches Hg (1004.0 mb)
Winds: variable direction winds at 2 MPH (2 knots; 1.0 m/s)
Visibility: 0.93 miles (1.50 km)
Ceiling: 400 feet AGL
Clouds: scattered clouds at 200 feet AGL
broken clouds at 400 feet AGL
Weather: -RA -DZ  (light rain, light drizzle)

METAR text: EBLG 180820Z 12004KT 070V160 1600 RADZ FEW002 BKN005 15/14 Q1004 TEMPO 1200 RADZ BKN002
Conditions at: EBLG (BIERSET/LIEGE (C, BE) observed 0820 UTC 18 August 2019
Temperature: 15.0°C (59°F)
Dewpoint: 14.0°C (57°F) [RH = 94%]
Pressure (altimeter): 29.65 inches Hg (1004.0 mb)
Winds: from the ESE (120 degrees) at 5 MPH (4 knots; 2.1 m/s)
Visibility: 0.99 miles (1.59 km)
Ceiling: 500 feet AGL
Clouds: few clouds at 200 feet AGL
broken clouds at 500 feet AGL
Weather: RA DZ  (moderate rain, moderate drizzle)

METAR text: EBLG 180750Z 08003KT 050V110 2700 -RADZ SCT003 BKN010 14/14 Q1004 TEMPO 1500 RADZ BKN003
Conditions at: EBLG (BIERSET/LIEGE (C, BE) observed 0750 UTC 18 August 2019
Temperature: 14.0°C (57°F)
Dewpoint: 14.0°C (57°F) [RH = 100%]
Pressure (altimeter): 29.65 inches Hg (1004.0 mb)
Winds: from the E (80 degrees) at 3 MPH (3 knots; 1.5 m/s)
Visibility: 1.68 miles (2.70 km)
Ceiling: 1000 feet AGL
Clouds: scattered clouds at 300 feet AGL
broken clouds at 1000 feet AGL
Weather: -RA -DZ  (light rain, light drizzle)

METAR text: EBLG 180720Z 05004KT 020V080 2500 -RADZ SCT003 BKN012 14/13 Q1004 TEMPO 1500 RADZ BKN005
Conditions at: EBLG (BIERSET/LIEGE (C, BE) observed 0720 UTC 18 August 2019
Temperature: 14.0°C (57°F)
Dewpoint: 13.0°C (55°F) [RH = 94%]
Pressure (altimeter): 29.65 inches Hg (1004.0 mb)
Winds: from the NE (50 degrees) at 5 MPH (4 knots; 2.1 m/s)
Visibility: 1.55 miles (2.49 km)
Ceiling: 1200 feet AGL
Clouds: scattered clouds at 300 feet AGL
broken clouds at 1200 feet AGL
Weather: -RA -DZ  (light rain, light drizzle)

METAR text: EBLG 180650Z 05004KT 330V070 6000 -RA FEW004 BKN014 14/13 Q1005 RERA TEMPO 2000 RA BKN006
Conditions at: EBLG (BIERSET/LIEGE (C, BE) observed 0650 UTC 18 August 2019
Temperature: 14.0°C (57°F)
Dewpoint: 13.0°C (55°F) [RH = 94%]
Pressure (altimeter): 29.68 inches Hg (1005.0 mb)
Winds: from the NE (50 degrees) at 5 MPH (4 knots; 2.1 m/s)
Visibility: 4 miles ( 6 km)
Ceiling: 1400 feet AGL
Clouds: few clouds at 400 feet AGL
broken clouds at 1400 feet AGL
Weather: -RA  (light rain)

METAR text: EBLG 180620Z 36004KT 330V040 2200 RA FEW004 BKN010 14/14 Q1006 TEMPO 2000 RA BKN006
Conditions at: EBLG (BIERSET/LIEGE (C, BE) observed 0620 UTC 18 August 2019
Temperature: 14.0°C (57°F)
Dewpoint: 14.0°C (57°F) [RH = 100%]
Pressure (altimeter): 29.70 inches Hg (1006.0 mb)
Winds: from the N (360 degrees) at 5 MPH (4 knots; 2.1 m/s)
Visibility: 1.37 miles (2.20 km)
Ceiling: 1000 feet AGL
Clouds: few clouds at 400 feet AGL
broken clouds at 1000 feet AGL
Weather: RA  (moderate rain)

METAR text: EBLG 180550Z 12004KT 050V140 6000 -RA FEW006 BKN018 14/13 Q1006 TEMPO 4000 RA
Conditions at: EBLG (BIERSET/LIEGE (C, BE) observed 0550 UTC 18 August 2019
Temperature: 14.0°C (57°F)
Dewpoint: 13.0°C (55°F) [RH = 94%]
Pressure (altimeter): 29.70 inches Hg (1006.0 mb)
Winds: from the ESE (120 degrees) at 5 MPH (4 knots; 2.1 m/s)
Visibility: 4 miles ( 6 km)
Ceiling: 1800 feet AGL
Clouds: few clouds at 600 feet AGL
broken clouds at 1800 feet AGL
Weather: -RA  (light rain)

METAR text: EBLG 180520Z 15006KT 120V200 9999 -RA BKN029 14/13 Q1006 TEMPO 4000 RA
Conditions at: EBLG (BIERSET/LIEGE (C, BE) observed 0520 UTC 18 August 2019
Temperature: 14.0°C (57°F)
Dewpoint: 13.0°C (55°F) [RH = 94%]
Pressure (altimeter): 29.70 inches Hg (1006.0 mb)
Winds: from the SSE (150 degrees) at 7 MPH (6 knots; 3.1 m/s)
Visibility: 6 or more miles (10+ km)
Ceiling: 2900 feet AGL
Clouds: broken clouds at 2900 feet AGL
Weather: -RA  (light rain)

METAR text: EBLG 180450Z 14005KT 9999 -RA BKN036 14/13 Q1006 TEMPO 4000 RA
Conditions at: EBLG (BIERSET/LIEGE (C, BE) observed 0450 UTC 18 August 2019
Temperature: 14.0°C (57°F)
Dewpoint: 13.0°C (55°F) [RH = 94%]
Pressure (altimeter): 29.70 inches Hg (1006.0 mb)
Winds: from the SE (140 degrees) at 6 MPH (5 knots; 2.6 m/s)
Visibility: 6 or more miles (10+ km)
Ceiling: 3600 feet AGL
Clouds: broken clouds at 3600 feet AGL
Weather: -RA  (light rain)

METAR text: EBLG 180420Z 15006KT 120V180 9999 BKN037 14/13 Q1007 NOSIG
Conditions at: EBLG (BIERSET/LIEGE (C, BE) observed 0420 UTC 18 August 2019
Temperature: 14.0°C (57°F)
Dewpoint: 13.0°C (55°F) [RH = 94%]
Pressure (altimeter): 29.73 inches Hg (1007.0 mb)
Winds: from the SSE (150 degrees) at 7 MPH (6 knots; 3.1 m/s)
Visibility: 6 or more miles (10+ km)
Ceiling: 3700 feet AGL
Clouds: broken clouds at 3700 feet AGL
Weather: no significant weather observed at this time

METAR text: EBLG 180350Z 16007KT 9999 BKN048 14/13 Q1007 NOSIG
Conditions at: EBLG (BIERSET/LIEGE (C, BE) observed 0350 UTC 18 August 2019
Temperature: 14.0°C (57°F)
Dewpoint: 13.0°C (55°F) [RH = 94%]
Pressure (altimeter): 29.73 inches Hg (1007.0 mb)
Winds: from the SSE (160 degrees) at 8 MPH (7 knots; 3.6 m/s)
Visibility: 6 or more miles (10+ km)
Ceiling: 4800 feet AGL
Clouds: broken clouds at 4800 feet AGL
Weather: no significant weather observed at this time

METAR text: EBLG 180320Z 15007KT 8000 BKN048 14/13 Q1007 NOSIG
Conditions at: EBLG (BIERSET/LIEGE (C, BE) observed 0320 UTC 18 August 2019
Temperature: 14.0°C (57°F)
Dewpoint: 13.0°C (55°F) [RH = 94%]
Pressure (altimeter): 29.73 inches Hg (1007.0 mb)
Winds: from the SSE (150 degrees) at 8 MPH (7 knots; 3.6 m/s)
Visibility: 5 miles ( 8 km)
Ceiling: 4800 feet AGL
Clouds: broken clouds at 4800 feet AGL
Weather: no significant weather observed at this time

METAR text: EBLG 180250Z 15007KT 4000 BR FEW010 BKN046 14/13 Q1008 NOSIG
Conditions at: EBLG (BIERSET/LIEGE (C, BE) observed 0250 UTC 18 August 2019
Temperature: 14.0°C (57°F)
Dewpoint: 13.0°C (55°F) [RH = 94%]
Pressure (altimeter): 29.76 inches Hg (1008.0 mb)
Winds: from the SSE (150 degrees) at 8 MPH (7 knots; 3.6 m/s)
Visibility: 2.49 miles (4.01 km)
Ceiling: 4600 feet AGL
Clouds: few clouds at 1000 feet AGL
broken clouds at 4600 feet AGL
Weather: BR  (mist)

METAR text: EBLG 180220Z 14005KT 4000 -RA FEW005 SCT010 BKN046 14/13 Q1008 NOSIG
Conditions at: EBLG (BIERSET/LIEGE (C, BE) observed 0220 UTC 18 August 2019
Temperature: 14.0°C (57°F)
Dewpoint: 13.0°C (55°F) [RH = 94%]
Pressure (altimeter): 29.76 inches Hg (1008.0 mb)
Winds: from the SE (140 degrees) at 6 MPH (5 knots; 2.6 m/s)
Visibility: 2.49 miles (4.01 km)
Ceiling: 4600 feet AGL
Clouds: few clouds at 500 feet AGL
scattered clouds at 1000 feet AGL
broken clouds at 4600 feet AGL
Weather: -RA  (light rain)

METAR text: EBLG 180150Z 16005KT 8000 -RA FEW005 SCT010 BKN046 14/13 Q1008 TEMPO 4000 RA BKN010
Conditions at: EBLG (BIERSET/LIEGE (C, BE) observed 0150 UTC 18 August 2019
Temperature: 14.0°C (57°F)
Dewpoint: 13.0°C (55°F) [RH = 94%]
Pressure (altimeter): 29.76 inches Hg (1008.0 mb)
Winds: from the SSE (160 degrees) at 6 MPH (5 knots; 2.6 m/s)
Visibility: 5 miles ( 8 km)
Ceiling: 4600 feet AGL
Clouds: few clouds at 500 feet AGL
scattered clouds at 1000 feet AGL
broken clouds at 4600 feet AGL
Weather: -RA  (light rain)

METAR text: EBLG 180120Z 22005KT 4400 -RA FEW005 SCT010 BKN045 14/13 Q1008 TEMPO 3000 RA BKN010
Conditions at: EBLG (BIERSET/LIEGE (C, BE) observed 0120 UTC 18 August 2019
Temperature: 14.0°C (57°F)
Dewpoint: 13.0°C (55°F) [RH = 94%]
Pressure (altimeter): 29.76 inches Hg (1008.0 mb)
Winds: from the SW (220 degrees) at 6 MPH (5 knots; 2.6 m/s)
Visibility: 2.73 miles (4.39 km)
Ceiling: 4500 feet AGL
Clouds: few clouds at 500 feet AGL
scattered clouds at 1000 feet AGL
broken clouds at 4500 feet AGL
Weather: -RA  (light rain)

METAR text: EBLG 180050Z 24004KT 220V280 8000 -RA FEW005 SCT007 BKN015 14/13 Q1008 TEMPO 3000 RA BKN010
Conditions at: EBLG (BIERSET/LIEGE (C, BE) observed 0050 UTC 18 August 2019
Temperature: 14.0°C (57°F)
Dewpoint: 13.0°C (55°F) [RH = 94%]
Pressure (altimeter): 29.76 inches Hg (1008.0 mb)
Winds: from the WSW (240 degrees) at 5 MPH (4 knots; 2.1 m/s)
Visibility: 5 miles ( 8 km)
Ceiling: 1500 feet AGL
Clouds: few clouds at 500 feet AGL
scattered clouds at 700 feet AGL
broken clouds at 1500 feet AGL
Weather: -RA  (light rain)

METAR text: EBLG 180020Z 28007KT 4200 RA FEW005 SCT007 BKN015 13/13 Q1009 TEMPO 3000 RA BKN010
Conditions at: EBLG (BIERSET/LIEGE (C, BE) observed 0020 UTC 18 August 2019
Temperature: 13.0°C (55°F)
Dewpoint: 13.0°C (55°F) [RH = 100%]
Pressure (altimeter): 29.79 inches Hg (1009.0 mb)
Winds: from the W (280 degrees) at 8 MPH (7 knots; 3.6 m/s)
Visibility: 2.61 miles (4.20 km)
Ceiling: 1500 feet AGL
Clouds: few clouds at 500 feet AGL
scattered clouds at 700 feet AGL
broken clouds at 1500 feet AGL
Weather: RA  (moderate rain)

METAR text: EBLG 172350Z 29010G21KT 250V310 3500 RA FEW002 SCT007 BKN010 13/12 Q1009 TEMPO 3000 RA BKN010
Conditions at: EBLG (BIERSET/LIEGE (C, BE) observed 2350 UTC 17 August 2019
Temperature: 13.0°C (55°F)
Dewpoint: 12.0°C (54°F) [RH = 94%]
Pressure (altimeter): 29.79 inches Hg (1009.0 mb)
Winds: from the WNW (290 degrees) at 12 MPH (10 knots; 5.1 m/s)
gusting to 24 MPH (21 knots; 10.8 m/s)
Visibility: 2.17 miles (3.49 km)
Ceiling: 1000 feet AGL
Clouds: few clouds at 200 feet AGL
scattered clouds at 700 feet AGL
broken clouds at 1000 feet AGL
Weather: RA  (moderate rain)

METAR text: EBLG 172320Z 16009KT 8000 -RA FEW002 SCT008 BKN018 17/17 Q1008 TEMPO 3000 RA BKN010
Conditions at: EBLG (BIERSET/LIEGE (C, BE) observed 2320 UTC 17 August 2019
Temperature: 17.0°C (63°F)
Dewpoint: 17.0°C (63°F) [RH = 100%]
Pressure (altimeter): 29.76 inches Hg (1008.0 mb)
Winds: from the SSE (160 degrees) at 10 MPH (9 knots; 4.6 m/s)
Visibility: 5 miles ( 8 km)
Ceiling: 1800 feet AGL
Clouds: few clouds at 200 feet AGL
scattered clouds at 800 feet AGL
broken clouds at 1800 feet AGL
Weather: -RA  (light rain)

METAR text: EBLG 172250Z 17009G22KT 110V180 2600 +RA FEW002 SCT008 BKN018 17/17 Q1008 TEMPO 3000 RA BKN010
Conditions at: EBLG (BIERSET/LIEGE (C, BE) observed 2250 UTC 17 August 2019
Temperature: 17.0°C (63°F)
Dewpoint: 17.0°C (63°F) [RH = 100%]
Pressure (altimeter): 29.76 inches Hg (1008.0 mb)
Winds: from the S (170 degrees) at 10 MPH (9 knots; 4.6 m/s)
gusting to 25 MPH (22 knots; 11.3 m/s)
Visibility: 1.62 miles (2.61 km)
Ceiling: 1800 feet AGL
Clouds: few clouds at 200 feet AGL
scattered clouds at 800 feet AGL
broken clouds at 1800 feet AGL
Weather: +RA  (heavy rain)

METAR text: EBLG 172220Z 19008KT 160V220 9000 -RA SCT008 BKN019 18/17 Q1008 TEMPO 3000 RA BKN010
Conditions at: EBLG (BIERSET/LIEGE (C, BE) observed 2220 UTC 17 August 2019
Temperature: 18.0°C (64°F)
Dewpoint: 17.0°C (63°F) [RH = 94%]
Pressure (altimeter): 29.76 inches Hg (1008.0 mb)
Winds: from the S (190 degrees) at 9 MPH (8 knots; 4.1 m/s)
Visibility: 6 miles ( 9 km)
Ceiling: 1900 feet AGL
Clouds: scattered clouds at 800 feet AGL
broken clouds at 1900 feet AGL
Weather: -RA  (light rain)

METAR text: EBLG 172150Z 19008KT 9999 -RA SCT008 BKN019 18/17 Q1008 TEMPO 3000 RA BKN010
Conditions at: EBLG (BIERSET/LIEGE (C, BE) observed 2150 UTC 17 August 2019
Temperature: 18.0°C (64°F)
Dewpoint: 17.0°C (63°F) [RH = 94%]
Pressure (altimeter): 29.76 inches Hg (1008.0 mb)
Winds: from the S (190 degrees) at 9 MPH (8 knots; 4.1 m/s)
Visibility: 6 or more miles (10+ km)
Ceiling: 1900 feet AGL
Clouds: scattered clouds at 800 feet AGL
broken clouds at 1900 feet AGL
Weather: -RA  (light rain)

METAR text: EBLG 172120Z 19009KT 9999 -RA FEW008 SCT012 18/17 Q1008 TEMPO 3000 RA BKN010
Conditions at: EBLG (BIERSET/LIEGE (C, BE) observed 2120 UTC 17 August 2019
Temperature: 18.0°C (64°F)
Dewpoint: 17.0°C (63°F) [RH = 94%]
Pressure (altimeter): 29.76 inches Hg (1008.0 mb)
Winds: from the S (190 degrees) at 10 MPH (9 knots; 4.6 m/s)
Visibility: 6 or more miles (10+ km)
Ceiling: at least 12,000 feet AGL
Clouds: few clouds at 800 feet AGL
scattered clouds at 1200 feet AGL
Weather: -RA  (light rain)

METAR text: EBLG 172050Z 19009KT 9999 -RA FEW010 SCT012 BKN018 18/17 Q1009 TEMPO 2000 RA BKN010
Conditions at: EBLG (BIERSET/LIEGE (C, BE) observed 2050 UTC 17 August 2019
Temperature: 18.0°C (64°F)
Dewpoint: 17.0°C (63°F) [RH = 94%]
Pressure (altimeter): 29.79 inches Hg (1009.0 mb)
Winds: from the S (190 degrees) at 10 MPH (9 knots; 4.6 m/s)
Visibility: 6 or more miles (10+ km)
Ceiling: 1800 feet AGL
Clouds: few clouds at 1000 feet AGL
scattered clouds at 1200 feet AGL
broken clouds at 1800 feet AGL
Weather: -RA  (light rain)

METAR text: EBLG 172020Z 19009KT 9999 -RA SCT010 BKN012 18/17 Q1009 TEMPO 2000 RA BKN010
Conditions at: EBLG (BIERSET/LIEGE (C, BE) observed 2020 UTC 17 August 2019
Temperature: 18.0°C (64°F)
Dewpoint: 17.0°C (63°F) [RH = 94%]
Pressure (altimeter): 29.79 inches Hg (1009.0 mb)
Winds: from the S (190 degrees) at 10 MPH (9 knots; 4.6 m/s)
Visibility: 6 or more miles (10+ km)
Ceiling: 1200 feet AGL
Clouds: scattered clouds at 1000 feet AGL
broken clouds at 1200 feet AGL
Weather: -RA  (light rain)

METAR text: EBLG 171950Z 20010KT 9999 SCT010 BKN015 18/17 Q1009 TEMPO 2000 RA BKN010
Conditions at: EBLG (BIERSET/LIEGE (C, BE) observed 1950 UTC 17 August 2019
Temperature: 18.0°C (64°F)
Dewpoint: 17.0°C (63°F) [RH = 94%]
Pressure (altimeter): 29.79 inches Hg (1009.0 mb)
Winds: from the SSW (200 degrees) at 12 MPH (10 knots; 5.1 m/s)
Visibility: 6 or more miles (10+ km)
Ceiling: 1500 feet AGL
Clouds: scattered clouds at 1000 feet AGL
broken clouds at 1500 feet AGL
Weather: no significant weather observed at this time

METAR text: EBLG 171920Z 19011KT 9999 SCT012 BKN015 18/17 Q1008 TEMPO 2000 RA BKN010
Conditions at: EBLG (BIERSET/LIEGE (C, BE) observed 1920 UTC 17 August 2019
Temperature: 18.0°C (64°F)
Dewpoint: 17.0°C (63°F) [RH = 94%]
Pressure (altimeter): 29.76 inches Hg (1008.0 mb)
Winds: from the S (190 degrees) at 13 MPH (11 knots; 5.7 m/s)
Visibility: 6 or more miles (10+ km)
Ceiling: 1500 feet AGL
Clouds: scattered clouds at 1200 feet AGL
broken clouds at 1500 feet AGL
Weather: no significant weather observed at this time

METAR text: EBLG 171850Z 19009KT 9999 FEW012 BKN015 18/17 Q1009 TEMPO BKN010
Conditions at: EBLG (BIERSET/LIEGE (C, BE) observed 1850 UTC 17 August 2019
Temperature: 18.0°C (64°F)
Dewpoint: 17.0°C (63°F) [RH = 94%]
Pressure (altimeter): 29.79 inches Hg (1009.0 mb)
Winds: from the S (190 degrees) at 10 MPH (9 knots; 4.6 m/s)
Visibility: 6 or more miles (10+ km)
Ceiling: 1500 feet AGL
Clouds: few clouds at 1200 feet AGL
broken clouds at 1500 feet AGL
Weather: no significant weather observed at this time

METAR text: EBLG 171820Z 19010KT 9999 -RA FEW012 BKN015 18/17 Q1009 TEMPO BKN010
Conditions at: EBLG (BIERSET/LIEGE (C, BE) observed 1820 UTC 17 August 2019
Temperature: 18.0°C (64°F)
Dewpoint: 17.0°C (63°F) [RH = 94%]
Pressure (altimeter): 29.79 inches Hg (1009.0 mb)
Winds: from the S (190 degrees) at 12 MPH (10 knots; 5.1 m/s)
Visibility: 6 or more miles (10+ km)
Ceiling: 1500 feet AGL
Clouds: few clouds at 1200 feet AGL
broken clouds at 1500 feet AGL
Weather: -RA  (light rain)

METAR text: EBLG 171750Z 20011KT 9999 -RA FEW012 BKN015 19/17 Q1009 TEMPO BKN010
Conditions at: EBLG (BIERSET/LIEGE (C, BE) observed 1750 UTC 17 August 2019
Temperature: 19.0°C (66°F)
Dewpoint: 17.0°C (63°F) [RH = 88%]
Pressure (altimeter): 29.79 inches Hg (1009.0 mb)
Winds: from the SSW (200 degrees) at 13 MPH (11 knots; 5.7 m/s)
Visibility: 6 or more miles (10+ km)
Ceiling: 1500 feet AGL
Clouds: few clouds at 1200 feet AGL
broken clouds at 1500 feet AGL
Weather: -RA  (light rain)

METAR text: EBLG 171720Z 21012KT 9999 -RA FEW012 BKN015 19/17 Q1009 NOSIG
Conditions at: EBLG (BIERSET/LIEGE (C, BE) observed 1720 UTC 17 August 2019
Temperature: 19.0°C (66°F)
Dewpoint: 17.0°C (63°F) [RH = 88%]
Pressure (altimeter): 29.79 inches Hg (1009.0 mb)
Winds: from the SSW (210 degrees) at 14 MPH (12 knots; 6.2 m/s)
Visibility: 6 or more miles (10+ km)
Ceiling: 1500 feet AGL
Clouds: few clouds at 1200 feet AGL
broken clouds at 1500 feet AGL
Weather: -RA  (light rain)

METAR text: EBLG 171650Z 19010KT 9999 -RA FEW012 BKN017 19/17 Q1009 NOSIG
Conditions at: EBLG (BIERSET/LIEGE (C, BE) observed 1650 UTC 17 August 2019
Temperature: 19.0°C (66°F)
Dewpoint: 17.0°C (63°F) [RH = 88%]
Pressure (altimeter): 29.79 inches Hg (1009.0 mb)
Winds: from the S (190 degrees) at 12 MPH (10 knots; 5.1 m/s)
Visibility: 6 or more miles (10+ km)
Ceiling: 1700 feet AGL
Clouds: few clouds at 1200 feet AGL
broken clouds at 1700 feet AGL
Weather: -RA  (light rain)

METAR text: EBLG 171620Z 19011KT 4500 -RA FEW007 BKN010 18/17 Q1009 TEMPO 4000 BKN008
Conditions at: EBLG (BIERSET/LIEGE (C, BE) observed 1620 UTC 17 August 2019
Temperature: 18.0°C (64°F)
Dewpoint: 17.0°C (63°F) [RH = 94%]
Pressure (altimeter): 29.79 inches Hg (1009.0 mb)
Winds: from the S (190 degrees) at 13 MPH (11 knots; 5.7 m/s)
Visibility: 2.80 miles (4.51 km)
Ceiling: 1000 feet AGL
Clouds: few clouds at 700 feet AGL
broken clouds at 1000 feet AGL
Weather: -RA  (light rain)

METAR text: EBLG 171550Z 19012KT 8000 -RA SCT008 BKN010 18/17 Q1009 TEMPO 4000 BKN008
Conditions at: EBLG (BIERSET/LIEGE (C, BE) observed 1550 UTC 17 August 2019
Temperature: 18.0°C (64°F)
Dewpoint: 17.0°C (63°F) [RH = 94%]
Pressure (altimeter): 29.79 inches Hg (1009.0 mb)
Winds: from the S (190 degrees) at 14 MPH (12 knots; 6.2 m/s)
Visibility: 5 miles ( 8 km)
Ceiling: 1000 feet AGL
Clouds: scattered clouds at 800 feet AGL
broken clouds at 1000 feet AGL
Weather: -RA  (light rain)

METAR text: EBLG 171520Z 20011KT 4200 -RA SCT008 BKN011 18/17 Q1009 TEMPO 4000 BKN008
Conditions at: EBLG (BIERSET/LIEGE (C, BE) observed 1520 UTC 17 August 2019
Temperature: 18.0°C (64°F)
Dewpoint: 17.0°C (63°F) [RH = 94%]
Pressure (altimeter): 29.79 inches Hg (1009.0 mb)
Winds: from the SSW (200 degrees) at 13 MPH (11 knots; 5.7 m/s)
Visibility: 2.61 miles (4.20 km)
Ceiling: 1100 feet AGL
Clouds: scattered clouds at 800 feet AGL
broken clouds at 1100 feet AGL
Weather: -RA  (light rain)

METAR text: EBLG 171450Z 21010KT 6000 -RA SCT008 BKN012 18/17 Q1009 TEMPO 4000 BKN008
Conditions at: EBLG (BIERSET/LIEGE (C, BE) observed 1450 UTC 17 August 2019
Temperature: 18.0°C (64°F)
Dewpoint: 17.0°C (63°F) [RH = 94%]
Pressure (altimeter): 29.79 inches Hg (1009.0 mb)
Winds: from the SSW (210 degrees) at 12 MPH (10 knots; 5.1 m/s)
Visibility: 4 miles ( 6 km)
Ceiling: 1200 feet AGL
Clouds: scattered clouds at 800 feet AGL
broken clouds at 1200 feet AGL
Weather: -RA  (light rain)

METAR text: EBLG 171420Z 21014KT 9999 FEW010 BKN013 19/16 Q1009 TEMPO 4000 BKN008
Conditions at: EBLG (BIERSET/LIEGE (C, BE) observed 1420 UTC 17 August 2019
Temperature: 19.0°C (66°F)
Dewpoint: 16.0°C (61°F) [RH = 83%]
Pressure (altimeter): 29.79 inches Hg (1009.0 mb)
Winds: from the SSW (210 degrees) at 16 MPH (14 knots; 7.2 m/s)
Visibility: 6 or more miles (10+ km)
Ceiling: 1300 feet AGL
Clouds: few clouds at 1000 feet AGL
broken clouds at 1300 feet AGL
Weather: no significant weather observed at this time

METAR text: EBLG 171350Z 20015KT 9999 FEW010 BKN013 18/16 Q1009 TEMPO 4000 BKN008
Conditions at: EBLG (BIERSET/LIEGE (C, BE) observed 1350 UTC 17 August 2019
Temperature: 18.0°C (64°F)
Dewpoint: 16.0°C (61°F) [RH = 88%]
Pressure (altimeter): 29.79 inches Hg (1009.0 mb)
Winds: from the SSW (200 degrees) at 17 MPH (15 knots; 7.7 m/s)
Visibility: 6 or more miles (10+ km)
Ceiling: 1300 feet AGL
Clouds: few clouds at 1000 feet AGL
broken clouds at 1300 feet AGL
Weather: no significant weather observed at this time

METAR text: EBLG 171320Z 20013KT 9999 FEW009 BKN012 18/16 Q1009 TEMPO 4000 BKN008
Conditions at: EBLG (BIERSET/LIEGE (C, BE) observed 1320 UTC 17 August 2019
Temperature: 18.0°C (64°F)
Dewpoint: 16.0°C (61°F) [RH = 88%]
Pressure (altimeter): 29.79 inches Hg (1009.0 mb)
Winds: from the SSW (200 degrees) at 15 MPH (13 knots; 6.7 m/s)
Visibility: 6 or more miles (10+ km)
Ceiling: 1200 feet AGL
Clouds: few clouds at 900 feet AGL
broken clouds at 1200 feet AGL
Weather: no significant weather observed at this time

METAR text: EBLG 171250Z 19012KT 4500 -RA FEW007 BKN010 18/17 Q1009 TEMPO 4000 BKN008
Conditions at: EBLG (BIERSET/LIEGE (C, BE) observed 1250 UTC 17 August 2019
Temperature: 18.0°C (64°F)
Dewpoint: 17.0°C (63°F) [RH = 94%]
Pressure (altimeter): 29.79 inches Hg (1009.0 mb)
Winds: from the S (190 degrees) at 14 MPH (12 knots; 6.2 m/s)
Visibility: 2.80 miles (4.51 km)
Ceiling: 1000 feet AGL
Clouds: few clouds at 700 feet AGL
broken clouds at 1000 feet AGL
Weather: -RA  (light rain)

METAR text: EBLG 171220Z 20013KT 6000 -RA FEW007 BKN011 18/16 Q1009 TEMPO 4000 BKN008
Conditions at: EBLG (BIERSET/LIEGE (C, BE) observed 1220 UTC 17 August 2019
Temperature: 18.0°C (64°F)
Dewpoint: 16.0°C (61°F) [RH = 88%]
Pressure (altimeter): 29.79 inches Hg (1009.0 mb)
Winds: from the SSW (200 degrees) at 15 MPH (13 knots; 6.7 m/s)
Visibility: 4 miles ( 6 km)
Ceiling: 1100 feet AGL
Clouds: few clouds at 700 feet AGL
broken clouds at 1100 feet AGL
Weather: -RA  (light rain)

METAR text: EBLG 171150Z 20013KT 9999 -RA BKN014 18/15 Q1010 TEMPO 4000 BKN008
Conditions at: EBLG (BIERSET/LIEGE (C, BE) observed 1150 UTC 17 August 2019
Temperature: 18.0°C (64°F)
Dewpoint: 15.0°C (59°F) [RH = 83%]
Pressure (altimeter): 29.82 inches Hg (1010.0 mb)
Winds: from the SSW (200 degrees) at 15 MPH (13 knots; 6.7 m/s)
Visibility: 6 or more miles (10+ km)
Ceiling: 1400 feet AGL
Clouds: broken clouds at 1400 feet AGL
Weather: -RA  (light rain)

METAR text: EBLG 171120Z 20013KT 9999 FEW009 BKN013 19/16 Q1010 TEMPO 4000 BKN008
Conditions at: EBLG (BIERSET/LIEGE (C, BE) observed 1120 UTC 17 August 2019
Temperature: 19.0°C (66°F)
Dewpoint: 16.0°C (61°F) [RH = 83%]
Pressure (altimeter): 29.82 inches Hg (1010.0 mb)
Winds: from the SSW (200 degrees) at 15 MPH (13 knots; 6.7 m/s)
Visibility: 6 or more miles (10+ km)
Ceiling: 1300 feet AGL
Clouds: few clouds at 900 feet AGL
broken clouds at 1300 feet AGL
Weather: no significant weather observed at this time

Forecast for: EBLG (BIERSET/LIEGE (C, BE)
Text: TAF EBLG 181701Z 1818/1924 24010KT 9999 SCT020 SCT040
Forecast period: 1800 UTC 18 August 2019 to 0000 UTC 20 August 2019
Forecast type: FROM: standard forecast or significant change
Winds: from the WSW (240 degrees) at 12 MPH (10 knots; 5.1 m/s)
Visibility: 6 or more miles 10+ km)
Ceiling: at least 12,000 feet AGL
Clouds: scattered clouds at 2000 feet AGL
scattered clouds at 4000 feet AGL
Weather: no significant weather forecast for this period